Página principal
METAR-TAF:

METAR-TAF

Aeroportos :

Aeroporto Internacional de Mitiga

Trípoli, Líbia

latitude: 32-54N, longitude: 13-17E, altura: 11 m

METAR: em falta

Hora: 09:47 (07:47 UTC)

Previsão

O boletim foi feito há 8 horas e 47 minutos, às 23:00 UTC
Previsão válida de 20 às 00 UTC a 20 às 24 UTC
Vento 2 kt com direcção variável
Visibilidade: 8000 m
Probabilidade 30% :
Temporariamente
de 20 às 02 UTC a 20 às 06 UTC
Visibilidade: 3000 m
neblina
Tornando-se
de 20 às 09 UTC a 20 às 11 UTC
Vento 10 kt de este
Visibilidade 10 km ou mais
sem nuvens abaixo de 1500 metros e sem cumulonimbus
Tornando-se
de 20 às 21 UTC a 20 às 23 UTC
Vento 2 kt com direcção variável

TAF: HLLM 192300Z 2000/2024 VRB02KT 8000 NSC PROB30 TEMPO 2002/2006 3000 BR BECMG 2009/2011 09010KT CAVOK BECMG 2021/2023 VRB02KT

Observações e previsões do tempo de mais de 4000 aeroportos (mensagens METAR e TAF).

As estações disponíveis são os pontos amarelos e vermelhos sobre o mapa.

Mova o rato sobre o mapa para ver o nome da estação.

Depois clique no ponto para visualizar as observações e previsões meteorológicas.

Para alterar o mapa : clique nos botões verdes com uma cruz preta para aumentar o zoom; no botão verde com uma pitada de zoom; ou nas setas verdes para mapas adjacentes.


METAR-TAF: